createdAt,value
2022-08-05T09:16:02.414Z,99822.57
2022-08-05T09:20:36.675Z,99823.81
2022-08-05T09:24:55.785Z,99820.30
2022-08-05T09:29:08.877Z,99821.95
2022-08-05T09:33:34.914Z,99817.63
2022-08-05T09:38:17.423Z,99816.11
2022-08-05T09:42:28.140Z,99811.83
2022-08-05T09:46:36.920Z,99809.75
2022-08-05T09:50:50.113Z,99815.89
2022-08-05T09:55:06.473Z,99809.23
2022-08-05T09:59:35.023Z,99809.73
2022-08-05T10:04:00.485Z,99811.70
2022-08-05T10:08:37.365Z,99808.05
2022-08-05T10:12:49.674Z,99809.55
2022-08-05T10:17:36.785Z,99805.20
2022-08-05T10:21:42.571Z,99798.08
2022-08-05T10:25:50.296Z,99792.59
2022-08-05T10:30:06.770Z,99780.80
2022-08-05T10:34:31.149Z,99779.98
2022-08-05T10:38:46.617Z,99777.20
2022-08-05T10:42:56.616Z,99779.21
2022-08-05T10:47:26.687Z,99777.61
2022-08-05T10:51:53.124Z,99771.21
2022-08-05T10:56:21.455Z,99777.14
2022-08-05T11:00:42.166Z,99776.14
2022-08-05T11:05:04.116Z,99775.27
2022-08-05T11:09:31.914Z,99770.86
2022-08-05T11:13:57.753Z,99769.16
2022-08-05T11:18:30.010Z,99765.69
2022-08-05T11:22:49.938Z,99756.37
2022-08-05T11:27:51.191Z,99757.48
2022-08-05T11:32:35.133Z,99762.80
2022-08-05T11:36:47.120Z,99767.68
2022-08-05T11:41:34.397Z,99758.45
2022-08-05T11:46:27.562Z,99760.16
2022-08-05T11:50:04.466Z,99757.69
2022-08-05T11:54:16.603Z,99758.23
2022-08-05T11:58:40.445Z,99760.63
2022-08-05T12:02:52.041Z,99753.20
2022-08-05T12:07:03.848Z,99753.80
2022-08-05T12:11:20.335Z,99745.44
2022-08-05T12:15:37.961Z,99747.16
2022-08-05T12:20:26.825Z,99748.04
2022-08-05T12:24:17.606Z,99750.21
2022-08-05T12:28:38.759Z,99747.74
2022-08-05T12:32:51.258Z,99741.39
2022-08-05T12:37:00.896Z,99742.70
2022-08-05T12:41:16.175Z,99738.01
2022-08-05T12:45:48.396Z,99732.91
2022-08-05T12:50:04.139Z,99727.09
2022-08-05T12:54:23.574Z,99721.70
2022-08-05T12:58:51.067Z,99719.38
2022-08-05T13:03:01.783Z,99720.49
2022-08-05T13:07:16.082Z,99719.80
2022-08-05T13:12:02.191Z,99716.31
2022-08-05T13:15:58.176Z,99713.41
2022-08-05T13:20:08.668Z,99714.13
2022-08-05T13:24:36.306Z,99712.27
2022-08-05T13:28:46.419Z,99709.32
2022-08-05T13:32:56.416Z,99705.23
2022-08-05T13:37:04.554Z,99699.98
2022-08-05T13:41:16.877Z,99697.42
2022-08-05T13:45:33.966Z,99701.52
2022-08-05T13:49:46.573Z,99708.62
2022-08-05T13:53:56.471Z,99705.55
2022-08-05T13:58:06.186Z,99699.50
2022-08-05T14:02:20.073Z,99696.34
2022-08-05T14:06:34.691Z,99687.54
2022-08-05T14:10:44.197Z,99685.20
2022-08-05T14:14:52.977Z,99684.73
2022-08-05T14:19:04.601Z,99682.95
2022-08-05T14:23:12.962Z,99678.48
2022-08-05T14:27:23.046Z,99681.89
2022-08-05T14:32:02.411Z,99682.26
2022-08-05T14:36:03.753Z,99685.20
2022-08-05T14:40:17.205Z,99676.73
2022-08-05T14:44:24.515Z,99674.04
2022-08-05T14:48:38.259Z,99674.11
2022-08-05T14:52:53.101Z,99666.96
2022-08-05T14:57:09.732Z,99658.73
2022-08-05T15:01:47.994Z,99659.12
2022-08-05T15:06:07.910Z,99659.26
2022-08-05T15:10:17.031Z,99654.98
2022-08-05T15:14:35.034Z,99654.27
2022-08-05T15:18:47.052Z,99652.84
2022-08-05T15:22:56.500Z,99652.77
2022-08-05T15:27:04.159Z,99652.91
2022-08-05T15:31:17.441Z,99649.45
2022-08-05T15:35:27.941Z,99643.27
2022-08-05T15:41:01.807Z,99642.33
2022-08-05T15:44:11.975Z,99635.59
2022-08-05T15:48:21.233Z,99628.95
2022-08-05T15:52:53.820Z,99627.38
2022-08-05T15:56:57.484Z,99625.29
2022-08-05T16:01:16.291Z,99624.48
2022-08-05T16:05:28.245Z,99627.95
2022-08-05T16:09:36.195Z,99629.48
2022-08-05T16:13:45.784Z,99624.08
2022-08-05T16:17:58.009Z,99622.97
2022-08-05T16:22:07.613Z,99619.77
2022-08-05T16:26:26.522Z,99621.17
2022-08-05T16:30:36.187Z,99622.74
2022-08-05T16:34:44.161Z,99620.13
2022-08-05T16:38:54.312Z,99622.57
2022-08-05T16:43:03.238Z,99624.67
2022-08-05T16:47:11.033Z,99621.61
2022-08-05T16:51:42.412Z,99623.67
2022-08-05T16:55:57.890Z,99622.80
2022-08-05T17:00:10.505Z,99630.88
2022-08-05T17:04:20.728Z,99630.08
2022-08-05T17:08:36.568Z,99629.70
2022-08-05T17:13:00.689Z,99633.19
2022-08-05T17:17:15.233Z,99641.29
2022-08-05T17:21:23.898Z,99644.27
2022-08-05T17:25:39.252Z,99646.30
2022-08-05T17:29:52.764Z,99652.60
2022-08-05T17:34:07.614Z,99657.34
2022-08-05T17:38:20.363Z,99657.96
2022-08-05T17:42:30.045Z,99662.84
2022-08-05T17:46:41.006Z,99668.77
2022-08-05T17:50:52.351Z,99673.93
2022-08-05T17:55:01.269Z,99680.65
2022-08-05T17:59:11.178Z,99697.35
2022-08-05T18:07:57.816Z,99716.22
2022-08-05T18:12:10.161Z,99722.40
2022-08-05T18:16:20.604Z,99728.06
2022-08-05T18:20:31.551Z,99738.51
2022-08-05T18:24:39.924Z,99741.96
2022-08-05T18:28:48.344Z,99753.85
2022-08-05T18:33:00.482Z,99761.60
2022-08-05T18:37:12.192Z,99761.36
2022-08-05T18:41:55.277Z,99767.83
2022-08-05T18:45:49.187Z,99770.60
2022-08-05T18:50:15.746Z,99777.70
2022-08-05T18:54:23.472Z,99785.23
2022-08-05T18:58:31.267Z,99791.47
2022-08-05T19:02:44.137Z,99789.58
2022-08-05T19:06:53.549Z,99789.97
2022-08-05T19:11:05.167Z,99795.98
2022-08-05T19:15:58.259Z,99806.57
2022-08-05T19:19:46.743Z,99826.16
2022-08-05T19:24:08.091Z,99838.27
2022-08-05T19:28:16.745Z,99845.25
2022-08-05T19:32:27.938Z,99847.42
2022-08-05T19:36:35.730Z,99845.61
2022-08-05T19:40:45.462Z,99860.65
2022-08-05T19:44:54.116Z,99866.14
2022-08-05T19:49:04.201Z,99870.29
2022-08-05T19:53:11.880Z,99869.02
2022-08-05T19:57:49.319Z,99868.61
2022-08-05T20:01:50.197Z,99877.16
2022-08-05T20:05:58.001Z,99892.73
2022-08-05T20:10:13.331Z,99899.98
2022-08-05T20:14:26.784Z,99902.77
2022-08-05T20:18:36.538Z,99906.38
2022-08-05T20:22:44.359Z,99916.66
2022-08-05T20:26:54.380Z,99927.55
2022-08-05T20:31:06.376Z,99928.53
2022-08-05T20:35:14.223Z,99931.65
2022-08-05T20:39:24.055Z,99937.36
2022-08-05T20:43:57.358Z,99940.23
2022-08-05T20:48:00.004Z,99957.47
2022-08-05T20:52:08.592Z,99978.98
2022-08-05T20:56:16.238Z,100003.91
2022-08-05T21:00:41.312Z,100026.89
2022-08-05T21:05:02.640Z,100038.88
2022-08-05T21:09:10.353Z,100037.27
2022-08-05T21:13:36.767Z,100031.48
2022-08-05T21:17:48.125Z,100026.40
2022-08-05T21:22:00.069Z,100013.68
2022-08-05T21:26:12.468Z,100008.34
2022-08-05T21:30:22.008Z,100010.36
2022-08-05T21:34:33.057Z,100024.45
2022-08-05T21:38:43.161Z,100025.95
2022-08-05T21:42:54.306Z,100037.86
2022-08-05T21:47:32.833Z,100032.88
2022-08-05T21:52:22.826Z,100034.11
2022-08-05T21:56:16.186Z,100036.07
2022-08-05T22:00:24.756Z,100043.80
2022-08-05T22:04:32.424Z,100056.91
2022-08-05T22:08:42.520Z,100070.16
2022-08-05T22:12:50.573Z,100084.84
2022-08-05T22:17:02.987Z,100090.48
2022-08-05T22:21:18.739Z,100095.48
2022-08-05T22:26:10.657Z,100102.27
2022-08-05T22:30:17.357Z,100104.20
2022-08-05T22:34:28.295Z,100115.40
2022-08-05T22:38:36.671Z,100127.81
2022-08-05T22:42:45.844Z,100137.80
2022-08-05T22:47:00.730Z,100136.64
2022-08-05T22:51:16.105Z,100135.63
2022-08-05T22:55:37.209Z,100131.04
2022-08-05T22:59:58.161Z,100130.72
2022-08-05T23:04:06.681Z,100133.02
2022-08-05T23:08:14.877Z,100127.13
2022-08-05T23:12:28.859Z,100130.48
2022-08-05T23:16:56.364Z,100138.80
2022-08-05T23:21:06.297Z,100149.23
2022-08-05T23:25:52.763Z,100156.33
2022-08-05T23:29:46.242Z,100169.46
2022-08-05T23:34:05.176Z,100176.54
2022-08-05T23:38:14.559Z,100179.77
2022-08-05T23:42:29.148Z,100177.92
2022-08-05T23:46:37.470Z,100183.90
2022-08-05T23:50:47.187Z,100184.79
2022-08-05T23:54:55.215Z,100187.46
2022-08-05T23:59:03.620Z,100200.89
